Time;durP1;ratioP1;P1;durP2;ratioP2;P2;SDS_P1;SDS_P2;PMS_P1;PMS_P2;Temp;Humidity;BMP_temperature;BMP_pressure;BME280_temperature;BME280_humidity;BME280_pressure;Samples;Min_cycle;Max_cycle;Signal;HPM_P1;HPM_P2
2021/01/05 00:00:21;;;;;;;22.08;12.63;;;;;;;10.48;nan;101236.84;4960843;28;99903;-72
2021/01/05 00:02:51;;;;;;;19.83;12.38;;;;;;;10.46;nan;101232.31;4979090;28;102310;-72
2021/01/05 00:05:20;;;;;;;21.60;12.02;;;;;;;10.51;nan;101230.88;4962192;28;96843;-72
2021/01/05 00:07:47;;;;;;;25.05;13.60;;;;;;;10.47;nan;101234.13;4979686;28;97260;-70
2021/01/05 00:10:15;;;;;;;22.58;12.48;;;;;;;10.39;nan;101222.25;4978289;28;99753;-70
2021/01/05 00:12:43;;;;;;;24.95;13.48;;;;;;;10.40;nan;101231.97;4978389;28;98128;-70
2021/01/05 00:15:12;;;;;;;23.15;12.02;;;;;;;10.42;nan;101230.34;4979266;28;97731;-71
2021/01/05 00:17:40;;;;;;;26.08;12.95;;;;;;;10.42;nan;101239.09;4977875;28;97370;-71
2021/01/05 00:20:11;;;;;;;21.75;12.70;;;;;;;10.40;nan;101239.84;4979393;28;99834;-70
2021/01/05 00:22:40;;;;;;;22.27;12.77;;;;;;;10.38;nan;101244.09;4978611;28;97934;-70
2021/01/05 00:25:09;;;;;;;24.02;13.65;;;;;;;10.39;nan;101241.56;4978808;28;98003;-71
2021/01/05 00:27:37;;;;;;;22.30;13.00;;;;;;;10.40;nan;101245.09;4960565;28;98194;-70
2021/01/05 00:30:15;;;;;;;21.42;12.80;;;;;;;10.40;nan;101252.97;4978180;28;97987;-70
2021/01/05 00:32:44;;;;;;;28.45;13.85;;;;;;;10.38;nan;101244.09;4978959;28;97927;-71
2021/01/05 00:35:16;;;;;;;25.23;14.35;;;;;;;10.35;nan;101249.13;4977586;28;97214;-72
2021/01/05 00:37:44;;;;;;;23.23;13.13;;;;;;;10.34;nan;101248.25;4977962;28;96925;-70
2021/01/05 00:40:12;;;;;;;21.30;12.68;;;;;;;10.37;nan;101252.75;4959747;28;97667;-70
2021/01/05 00:42:39;;;;;;;28.02;14.15;;;;;;;10.39;nan;101253.75;4960280;28;97758;-70
2021/01/05 00:45:08;;;;;;;24.83;14.43;;;;;;;10.36;nan;101246.63;4978160;28;98002;-71
2021/01/05 00:47:35;;;;;;;34.03;14.07;;;;;;;10.39;nan;101244.16;4978196;28;98021;-69
2021/01/05 00:50:04;;;;;;;31.15;14.50;;;;;;;10.40;nan;101248.59;4959199;28;97836;-69
2021/01/05 00:52:33;;;;;;;26.63;14.02;;;;;;;10.42;nan;101241.72;4960503;28;98304;-72
2021/01/05 00:55:04;;;;;;;22.85;13.77;;;;;;;10.40;nan;101243.34;4959908;28;97557;-70
2021/01/05 00:57:32;;;;;;;28.50;13.98;;;;;;;10.38;nan;101244.09;4979903;28;97495;-69
2021/01/05 01:00:00;;;;;;;23.98;13.10;;;;;;;10.37;nan;101253.69;4959948;28;99542;-72
2021/01/05 01:02:29;;;;;;;29.02;15.15;;;;;;;10.37;nan;101251.03;4978251;28;101872;-71
2021/01/05 01:04:56;;;;;;;26.63;13.93;;;;;;;10.34;nan;101252.59;4942166;28;97956;-70
2021/01/05 01:07:23;;;;;;;28.33;15.68;;;;;;;10.33;nan;101256.91;4963543;28;96957;-69
2021/01/05 01:09:52;;;;;;;33.35;14.75;;;;;;;10.34;nan;101257.84;4945874;28;99876;-70
2021/01/05 01:12:23;;;;;;;22.77;13.30;;;;;;;10.35;nan;101259.63;4962110;28;98919;-71
2021/01/05 01:14:55;;;;;;;26.05;13.45;;;;;;;10.32;nan;101256.84;4960898;28;97359;-71
2021/01/05 01:17:26;;;;;;;30.48;14.63;;;;;;;10.29;nan;101259.28;4946375;28;97272;-71
2021/01/05 01:19:56;;;;;;;29.70;14.20;;;;;;;10.29;nan;101264.53;4961267;28;99475;-70
2021/01/05 01:22:24;;;;;;;31.00;14.18;;;;;;;10.27;nan;101259.19;4960891;28;97170;-72
2021/01/05 01:25:04;;;;;;;33.42;15.13;;;;;;;10.27;nan;101264.44;4962593;28;96890;-70
2021/01/05 01:27:38;;;;;;;33.45;15.25;;;;;;;10.27;nan;101266.16;4963345;28;97194;-70
2021/01/05 01:30:08;;;;;;;31.70;14.98;;;;;;;10.28;nan;101262.69;4961653;28;98050;-70
2021/01/05 01:32:47;;;;;;;30.58;14.40;;;;;;;10.30;nan;101266.31;4979168;28;101185;-70
2021/01/05 01:35:16;;;;;;;26.50;14.15;;;;;;;10.31;nan;101273.41;4964188;28;97090;-70
2021/01/05 01:37:46;;;;;;;25.77;13.77;;;;;;;10.31;nan;101268.16;4963983;28;97966;-71
2021/01/05 01:40:20;;;;;;;24.58;14.38;;;;;;;10.34;nan;101263.09;4962389;28;97177;-70
2021/01/05 01:42:48;;;;;;;25.42;14.82;;;;;;;10.30;nan;101261.06;4979555;28;99512;-70
2021/01/05 01:45:23;;;;;;;29.92;14.00;;;;;;;10.27;nan;101253.94;4963065;28;96800;-71
2021/01/05 01:47:54;;;;;;;28.65;15.02;;;;;;;10.23;nan;101256.25;4979500;28;97408;-71
2021/01/05 01:50:25;;;;;;;32.25;14.60;;;;;;;10.20;nan;101250.00;4947088;28;101611;-70
2021/01/05 01:53:26;;;;;;;30.35;14.35;;;;;;;10.19;nan;101249.91;4981336;28;98224;-68
2021/01/05 01:56:25;;;;;;;27.02;12.98;;;;;;;10.20;nan;101249.09;4963547;28;97491;-70
2021/01/05 01:59:24;;;;;;;28.63;13.20;;;;;;;10.20;nan;101243.84;4978533;28;97778;-70
2021/01/05 02:01:58;;;;;;;30.02;14.10;;;;;;;10.16;nan;101241.88;4963301;28;99289;-71
2021/01/05 02:04:54;;;;;;;31.27;14.13;;;;;;;10.13;nan;101244.28;4981475;28;99550;-69
2021/01/05 02:07:58;;;;;;;25.60;14.05;;;;;;;10.14;nan;101249.63;4979789;28;97669;-70
2021/01/05 02:10:50;;;;;;;26.00;13.68;;;;;;;10.11;nan;101244.19;4980582;28;97395;-69
2021/01/05 02:13:31;;;;;;;29.92;14.95;;;;;;;10.10;nan;101244.09;4962561;28;99796;-70
2021/01/05 02:16:16;;;;;;;28.65;13.98;;;;;;;10.11;nan;101245.91;4966374;28;97791;-70
2021/01/05 02:18:46;;;;;;;29.60;14.73;;;;;;;10.14;nan;101248.75;4964110;28;97325;-69
2021/01/05 02:21:23;;;;;;;30.98;15.10;;;;;;;10.14;nan;101249.63;4947578;28;97358;-70
2021/01/05 02:24:06;;;;;;;25.25;13.25;;;;;;;10.14;nan;101254.88;4962056;28;97290;-70
2021/01/05 02:26:41;;;;;;;28.08;14.85;;;;;;;10.16;nan;101249.75;4962613;28;98155;-70
2021/01/05 02:29:11;;;;;;;30.48;15.45;;;;;;;10.12;nan;101248.66;4962550;28;96905;-71
2021/01/05 02:31:47;;;;;;;27.35;14.50;;;;;;;10.13;nan;101255.69;4963148;28;97320;-71
2021/01/05 02:34:24;;;;;;;28.40;14.95;;;;;;;10.14;nan;101257.50;4979332;28;99754;-70
2021/01/05 02:37:14;;;;;;;30.02;15.15;;;;;;;10.15;nan;101256.69;4963273;28;97832;-69
2021/01/05 02:40:28;;;;;;;24.35;13.38;;;;;;;10.14;nan;101254.88;4980567;28;97396;-71
2021/01/05 02:43:36;;;;;;;29.80;13.38;;;;;;;10.15;nan;101247.91;4979642;28;97479;-69
2021/01/05 02:46:34;;;;;;;31.23;14.68;;;;;;;10.16;nan;101241.88;4980083;28;98102;-70
2021/01/05 02:49:30;;;;;;;27.30;14.23;;;;;;;10.17;nan;101236.72;4979807;28;99572;-71
2021/01/05 02:52:58;;;;;;;27.17;14.77;;;;;;;10.15;nan;101240.03;4978316;28;96915;-71
2021/01/05 02:56:16;;;;;;;27.80;14.82;;;;;;;10.13;nan;101239.94;4975212;28;97231;-71
2021/01/05 02:59:25;;;;;;;28.70;14.27;;;;;;;10.16;nan;101234.88;4961780;28;100542;-71
2021/01/05 03:02:43;;;;;;;39.38;20.90;;;;;;;10.23;nan;101236.19;4975910;28;98195;-71
2021/01/05 03:05:29;;;;;;;29.33;15.05;;;;;;;10.23;nan;101235.25;4971262;28;98194;-70
2021/01/05 03:08:20;;;;;;;29.95;14.55;;;;;;;10.23;nan;101233.56;4979114;28;97801;-70
2021/01/05 03:11:10;;;;;;;28.08;14.07;;;;;;;10.24;nan;101227.47;4977328;28;99117;-69
2021/01/05 03:14:11;;;;;;;29.55;14.38;;;;;;;10.20;nan;101236.88;4941613;28;99312;-70
2021/01/05 03:17:05;;;;;;;24.98;14.07;;;;;;;10.20;nan;101239.50;4980028;28;97065;-70
2021/01/05 03:20:00;;;;;;;25.48;13.93;;;;;;;10.16;nan;101232.25;4978442;28;97303;-69
2021/01/05 03:22:50;;;;;;;29.27;13.80;;;;;;;10.15;nan;101230.44;4977545;28;98029;-71
2021/01/05 03:25:39;;;;;;;30.80;13.77;;;;;;;10.12;nan;101240.78;4978140;28;99138;-71
2021/01/05 03:28:28;;;;;;;24.10;13.75;;;;;;;10.11;nan;101238.03;4979472;28;97680;-70
2021/01/05 03:31:19;;;;;;;33.95;13.98;;;;;;;10.10;nan;101241.47;4978570;28;97010;-71
2021/01/05 03:34:06;;;;;;;28.92;14.38;;;;;;;10.12;nan;101245.09;4961585;28;99991;-70
2021/01/05 03:36:52;;;;;;;27.95;14.63;;;;;;;10.09;nan;101245.81;4979441;28;98228;-70
2021/01/05 03:39:39;;;;;;;25.73;13.40;;;;;;;10.07;nan;101236.00;4977464;28;97477;-70
2021/01/05 03:42:25;;;;;;;30.23;14.95;;;;;;;10.09;nan;101237.06;4974138;28;97808;-69
2021/01/05 03:45:18;;;;;;;33.78;15.45;;;;;;;10.09;nan;101239.69;4958542;28;101997;-69
2021/01/05 03:48:06;;;;;;;30.23;13.75;;;;;;;10.08;nan;101238.72;4978302;28;96730;-71
2021/01/05 03:50:53;;;;;;;26.17;14.25;;;;;;;10.07;nan;101234.28;4978747;28;97712;-69
2021/01/05 03:53:39;;;;;;;31.63;14.13;;;;;;;10.06;nan;101239.44;4978952;28;97217;-71
2021/01/05 03:56:25;;;;;;;25.80;13.27;;;;;;;10.02;nan;101233.09;4978343;28;98615;-71
2021/01/05 03:59:10;;;;;;;23.98;12.75;;;;;;;10.02;nan;101234.78;4978186;28;97918;-71
2021/01/05 04:01:58;;;;;;;26.50;13.57;;;;;;;10.03;nan;101239.25;4978533;28;96847;-71
2021/01/05 04:04:28;;;;;;;29.77;14.10;;;;;;;10.02;nan;101226.91;4978421;28;97855;-70
2021/01/05 04:06:56;;;;;;;28.67;14.50;;;;;;;10.06;nan;101226.31;4975486;28;99312;-69
2021/01/05 04:09:24;;;;;;;29.73;13.70;;;;;;;10.05;nan;101238.50;4978603;28;98953;-68
2021/01/05 04:11:52;;;;;;;30.27;14.70;;;;;;;10.03;nan;101228.75;4977784;28;97452;-70
2021/01/05 04:14:19;;;;;;;30.90;13.63;;;;;;;10.01;nan;101230.38;4978872;28;98615;-70
2021/01/05 04:16:47;;;;;;;25.40;13.70;;;;;;;10.01;nan;101227.75;4977870;28;98041;-69
2021/01/05 04:19:15;;;;;;;29.05;13.35;;;;;;;10.01;nan;101231.28;4977602;28;98122;-71
2021/01/05 04:21:43;;;;;;;31.92;14.30;;;;;;;10.01;nan;101230.38;4977142;28;97316;-70
2021/01/05 04:24:11;;;;;;;28.55;14.38;;;;;;;10.03;nan;101231.38;4979723;28;97756;-70
2021/01/05 04:26:38;;;;;;;26.45;15.10;;;;;;;10.06;nan;101237.72;4978065;28;99021;-70
2021/01/05 04:29:24;;;;;;;29.92;14.25;;;;;;;10.04;nan;101236.72;4976448;28;97874;-70
2021/01/05 04:31:51;;;;;;;28.33;13.85;;;;;;;10.05;nan;101235.00;4960938;28;97574;-69
2021/01/05 04:34:19;;;;;;;32.70;14.45;;;;;;;10.03;nan;101226.13;4980463;28;97735;-71
2021/01/05 04:36:47;;;;;;;26.05;13.52;;;;;;;10.01;nan;101230.38;4977184;28;98053;-71
2021/01/05 04:39:15;;;;;;;29.08;14.10;;;;;;;10.01;nan;101231.28;4976810;28;97920;-71
2021/01/05 04:41:47;;;;;;;33.28;14.18;;;;;;;9.98;nan;101231.06;4981501;28;98061;-69
2021/01/05 04:44:16;;;;;;;23.67;13.10;;;;;;;10.03;nan;101232.28;4981681;28;97338;-69
2021/01/05 04:46:49;;;;;;;25.77;13.75;;;;;;;10.03;nan;101232.28;4980477;28;98254;-70
2021/01/05 04:49:35;;;;;;;26.83;13.93;;;;;;;10.05;nan;101237.63;4981087;28;97205;-70
2021/01/05 04:52:06;;;;;;;27.75;14.50;;;;;;;10.06;nan;101228.94;4961175;28;97822;-70
2021/01/05 04:54:37;;;;;;;30.40;14.40;;;;;;;10.06;nan;101229.84;4979963;28;97636;-71
2021/01/05 04:57:07;;;;;;;26.70;14.63;;;;;;;10.04;nan;101225.31;4981239;28;98018;-69
2021/01/05 04:59:38;;;;;;;34.17;18.70;;;;;;;10.01;nan;101228.66;4980932;28;98059;-71
2021/01/05 05:02:17;;;;;;;85.03;35.78;;;;;;;10.03;nan;101234.91;4957579;28;97843;-68
2021/01/05 05:05:18;;;;;;;34.25;18.08;;;;;;;10.01;nan;101236.53;4982197;28;97749;-70
2021/01/05 05:07:54;;;;;;;29.95;14.82;;;;;;;10.02;nan;101237.41;4979818;28;99113;-70
2021/01/05 05:10:27;;;;;;;30.17;14.43;;;;;;;10.03;nan;101234.00;4980630;28;101396;-69
2021/01/05 05:13:00;;;;;;;26.77;14.00;;;;;;;10.04;nan;101234.09;4963849;28;97387;-68
2021/01/05 05:15:48;;;;;;;23.83;14.35;;;;;;;10.07;nan;101229.03;4981623;28;97925;-69
2021/01/05 05:18:36;;;;;;;44.97;22.15;;;;;;;10.11;nan;101228.44;4963007;28;97903;-70
2021/01/05 05:21:13;;;;;;;50.95;23.90;;;;;;;10.12;nan;101227.66;4963401;28;97301;-70
2021/01/05 05:23:50;;;;;;;23.90;14.63;;;;;;;10.10;nan;101230.97;4981917;28;97239;-70
2021/01/05 05:26:22;;;;;;;24.08;14.50;;;;;;;10.11;nan;101232.78;4981390;28;96768;-70
2021/01/05 05:28:54;;;;;;;21.02;13.80;;;;;;;10.13;nan;101232.06;4978994;28;99175;-70
2021/01/05 05:31:27;;;;;;;22.63;13.27;;;;;;;10.12;nan;101227.66;4964025;28;102193;-69
2021/01/05 05:33:59;;;;;;;25.13;13.85;;;;;;;10.11;nan;101223.19;4963312;28;96887;-70
2021/01/05 05:36:43;;;;;;;26.48;14.02;;;;;;;10.08;nan;101220.34;4980450;28;97255;-70
2021/01/05 05:39:22;;;;;;;22.63;13.18;;;;;;;10.09;nan;101230.06;4980639;28;97973;-68
2021/01/05 05:41:58;;;;;;;23.00;13.30;;;;;;;10.09;nan;101232.69;4963880;28;98084;-68
2021/01/05 05:44:29;;;;;;;22.10;12.35;;;;;;;10.09;nan;101227.44;4981777;28;96900;-70
2021/01/05 05:47:02;;;;;;;23.35;13.30;;;;;;;10.10;nan;101229.28;4962643;28;97650;-70
2021/01/05 05:49:47;;;;;;;24.15;13.68;;;;;;;10.13;nan;101226.81;4980878;28;97520;-70
2021/01/05 05:52:29;;;;;;;30.08;18.35;;;;;;;10.25;nan;101225.75;4946085;28;99524;-70
2021/01/05 05:55:22;;;;;;;30.30;17.40;;;;;;;10.33;nan;101220.16;4979005;28;97252;-69
2021/01/05 05:57:51;;;;;;;23.10;13.90;;;;;;;10.33;nan;101219.28;4980147;28;98174;-70
2021/01/05 06:00:29;;;;;;;21.67;13.93;;;;;;;10.29;nan;101219.91;4962844;28;98440;-69
2021/01/05 06:02:59;;;;;;;30.38;18.33;;;;;;;10.39;nan;101217.00;4959973;28;100468;-70
2021/01/05 06:05:32;;;;;;;29.88;18.45;;;;;;;10.47;nan;101221.94;4980388;28;97580;-68
2021/01/05 06:08:00;;;;;;;30.87;18.90;;;;;;;10.53;nan;101222.25;4980666;28;97630;-70
2021/01/05 06:10:29;;;;;;;25.10;15.07;;;;;;;10.45;nan;101226.16;4963462;28;98966;-69
2021/01/05 06:12:57;;;;;;;24.88;13.77;;;;;;;10.44;nan;101228.72;4980133;28;98224;-70
2021/01/05 06:15:25;;;;;;;25.98;12.88;;;;;;;10.44;nan;101228.72;4981441;28;97721;-70
2021/01/05 06:17:53;;;;;;;24.00;12.65;;;;;;;10.41;nan;101233.75;4979854;28;97305;-70
2021/01/05 06:20:20;;;;;;;23.77;13.43;;;;;;;10.40;nan;101230.22;4963284;28;98015;-69
2021/01/05 06:22:48;;;;;;;21.70;13.18;;;;;;;10.39;nan;101232.75;4962992;28;97830;-70
2021/01/05 06:25:15;;;;;;;20.40;13.63;;;;;;;10.39;nan;101230.13;4980966;28;97951;-70
2021/01/05 06:27:44;;;;;;;71.07;29.00;;;;;;;10.33;nan;101233.28;4980821;28;97704;-69
2021/01/05 06:30:12;;;;;;;79.03;36.38;;;;;;;10.34;nan;101229.88;4957197;28;99182;-70
2021/01/05 06:32:40;;;;;;;30.08;16.48;;;;;;;10.35;nan;101231.66;4979805;28;97852;-68
2021/01/05 06:35:09;;;;;;;21.17;12.57;;;;;;;10.35;nan;101236.00;4982339;28;97133;-70
2021/01/05 06:37:36;;;;;;;22.95;13.57;;;;;;;10.34;nan;101231.56;4979864;28;98274;-69
2021/01/05 06:40:06;;;;;;;20.55;12.57;;;;;;;10.34;nan;101235.13;4979476;28;98546;-70
2021/01/05 06:42:37;;;;;;;21.80;13.35;;;;;;;10.37;nan;101245.78;4981244;28;99373;-70
2021/01/05 06:45:07;;;;;;;107.20;45.42;;;;;;;10.35;nan;101242.16;4982339;28;97342;-71
2021/01/05 06:47:35;;;;;;;25.50;15.70;;;;;;;10.36;nan;101246.63;4979883;28;96771;-69
2021/01/05 06:50:04;;;;;;;22.83;12.77;;;;;;;10.40;nan;101245.09;4977621;28;97899;-69
2021/01/05 06:52:32;;;;;;;22.17;13.38;;;;;;;10.41;nan;101246.88;4961706;28;97673;-70
2021/01/05 06:55:00;;;;;;;20.45;12.55;;;;;;;10.42;nan;101235.59;4979634;28;97068;-71
2021/01/05 06:57:28;;;;;;;20.33;12.75;;;;;;;10.43;nan;101240.00;4962908;28;97712;-70
2021/01/05 06:59:56;;;;;;;25.55;16.65;;;;;;;10.47;nan;101244.66;4974823;28;98185;-69
2021/01/05 07:02:24;;;;;;;25.48;16.83;;;;;;;10.53;nan;101242.41;4958928;28;97844;-70
2021/01/05 07:04:52;;;;;;;39.50;21.85;;;;;;;10.50;nan;101244.81;4961456;28;97591;-71
2021/01/05 07:07:20;;;;;;;32.28;17.45;;;;;;;10.45;nan;101249.81;4979082;28;97249;-70
2021/01/05 07:09:47;;;;;;;26.27;16.30;;;;;;;10.54;nan;101257.34;4960110;28;98556;-70
2021/01/05 07:12:15;;;;;;;22.35;13.48;;;;;;;10.48;nan;101250.00;4961226;28;98988;-70
2021/01/05 07:14:42;;;;;;;24.92;16.50;;;;;;;10.60;nan;101252.47;4959058;28;97235;-71
2021/01/05 07:17:10;;;;;;;26.83;16.80;;;;;;;10.66;nan;101258.06;4976937;28;98148;-69
2021/01/05 07:19:38;;;;;;;60.50;35.17;;;;;;;10.68;nan;101261.69;4978386;28;101665;-69
2021/01/05 07:22:05;;;;;;;52.63;28.52;;;;;;;10.78;nan;101259.72;4978425;28;99096;-71
2021/01/05 07:24:33;;;;;;;27.60;17.13;;;;;;;10.82;nan;101263.44;4977437;28;98246;-70
2021/01/05 07:27:01;;;;;;;28.33;18.07;;;;;;;10.90;nan;101270.03;4976651;28;97506;-70
2021/01/05 07:29:47;;;;;;;27.20;17.75;;;;;;;10.95;nan;101266.88;4976084;28;97837;-69
2021/01/05 07:32:32;;;;;;;28.45;17.92;;;;;;;10.98;nan;101269.66;4961719;28;97914;-69
2021/01/05 07:35:01;;;;;;;26.33;14.30;;;;;;;10.86;nan;101270.66;4977311;28;97848;-68
2021/01/05 07:37:30;;;;;;;26.40;13.68;;;;;;;10.79;nan;101282.56;4978100;28;97254;-69
2021/01/05 07:39:58;;;;;;;22.90;13.95;;;;;;;10.72;nan;101293.50;4975355;28;98417;-70
2021/01/05 07:42:28;;;;;;;21.02;13.55;;;;;;;10.66;nan;101286.97;4960767;28;98656;-69
2021/01/05 07:44:57;;;;;;;27.38;17.30;;;;;;;10.76;nan;101284.09;4970441;28;97405;-69
2021/01/05 07:47:27;;;;;;;30.90;17.90;;;;;;;10.82;nan;101287.97;4977235;28;97864;-69
2021/01/05 07:49:54;;;;;;;28.07;17.60;;;;;;;10.85;nan;101289.91;4977817;28;99689;-69
2021/01/05 07:52:33;;;;;;;29.70;18.60;;;;;;;10.89;nan;101287.53;4975195;28;98944;-69
2021/01/05 07:55:01;;;;;;;28.08;17.70;;;;;;;10.97;nan;101288.00;4978407;28;96883;-69
2021/01/05 07:57:29;;;;;;;29.37;18.17;;;;;;;11.00;nan;101290.81;4977060;28;97222;-69
2021/01/05 07:59:56;;;;;;;28.73;17.90;;;;;;;11.05;nan;101297.25;4958208;28;97968;-69
2021/01/05 08:02:24;;;;;;;24.67;17.17;;;;;;;11.09;nan;101294.00;4958755;28;97908;-69
2021/01/05 08:04:52;;;;;;;28.20;18.97;;;;;;;11.14;nan;101287.28;4976611;28;98089;-69
2021/01/05 08:07:20;;;;;;;28.95;17.90;;;;;;;11.14;nan;101287.28;4977176;28;97520;-68
2021/01/05 08:09:48;;;;;;;28.15;18.00;;;;;;;11.18;nan;101286.66;4953729;28;98110;-69
2021/01/05 08:12:18;;;;;;;28.48;17.95;;;;;;;11.22;nan;101286.00;4975659;28;96748;-68
2021/01/05 08:14:45;;;;;;;28.42;17.42;;;;;;;11.21;nan;101284.19;4976705;28;96972;-69
2021/01/05 08:17:14;;;;;;;29.83;18.20;;;;;;;11.23;nan;101287.81;4980973;28;96817;-69
2021/01/05 08:19:42;;;;;;;29.25;17.88;;;;;;;11.24;nan;101281.72;4979975;28;99236;-68
2021/01/05 08:22:10;;;;;;;27.13;17.80;;;;;;;11.24;nan;101281.72;4980046;28;97823;-69
2021/01/05 08:24:37;;;;;;;28.13;18.58;;;;;;;11.23;nan;101272.03;4963768;28;98007;-69
2021/01/05 08:27:07;;;;;;;27.75;18.02;;;;;;;11.26;nan;101287.09;4979849;28;97693;-69
2021/01/05 08:29:34;;;;;;;26.83;18.00;;;;;;;11.29;nan;101288.19;4977923;28;98095;-69
2021/01/05 08:32:02;;;;;;;27.73;17.80;;;;;;;11.32;nan;101285.72;4961480;28;97803;-68
2021/01/05 08:34:30;;;;;;;26.97;17.60;;;;;;;11.34;nan;101289.34;4980987;28;98124;-68
2021/01/05 08:36:58;;;;;;;25.60;17.33;;;;;;;11.37;nan;101283.38;4980986;28;97554;-69
2021/01/05 08:39:26;;;;;;;28.95;18.85;;;;;;;11.37;nan;101284.25;4960870;28;98675;-68
2021/01/05 08:41:54;;;;;;;27.63;18.30;;;;;;;11.38;nan;101286.06;4973319;28;97911;-68
2021/01/05 08:44:24;;;;;;;27.60;18.47;;;;;;;11.42;nan;101274.00;4978631;28;98299;-68
2021/01/05 08:46:59;;;;;;;27.48;18.38;;;;;;;11.42;nan;101280.19;4975924;28;98960;-69
2021/01/05 08:49:28;;;;;;;28.30;18.83;;;;;;;11.41;nan;101282.69;4957081;28;99127;-69
2021/01/05 08:51:56;;;;;;;28.05;17.90;;;;;;;11.38;nan;101280.81;4975919;28;98826;-69
2021/01/05 08:54:24;;;;;;;27.15;18.27;;;;;;;11.38;nan;101277.28;4978813;28;98057;-69
2021/01/05 08:56:52;;;;;;;28.00;18.88;;;;;;;11.38;nan;101278.19;4979879;28;97503;-68
2021/01/05 08:59:20;;;;;;;27.67;18.65;;;;;;;11.39;nan;101279.06;4973290;28;98024;-68
2021/01/05 09:01:48;;;;;;;29.90;18.90;;;;;;;11.40;nan;101284.44;4979105;28;98238;-68
2021/01/05 09:04:16;;;;;;;28.20;19.07;;;;;;;11.46;nan;101281.25;4979928;28;96931;-69
2021/01/05 09:06:47;;;;;;;28.77;18.95;;;;;;;11.50;nan;101283.22;4979634;28;96893;-68
2021/01/05 09:09:15;;;;;;;28.73;19.20;;;;;;;11.49;nan;101284.06;4977521;28;98107;-70
2021/01/05 09:12:02;;;;;;;33.80;21.77;;;;;;;11.49;nan;101287.59;4979169;28;97435;-68
2021/01/05 09:14:30;;;;;;;28.85;18.95;;;;;;;11.51;nan;101275.44;4978923;28;97387;-68
2021/01/05 09:17:00;;;;;;;29.65;19.48;;;;;;;11.53;nan;101283.41;4977177;28;97431;-68
2021/01/05 09:19:29;;;;;;;26.40;18.07;;;;;;;11.53;nan;101289.56;4977831;28;98356;-69
2021/01/05 09:21:57;;;;;;;28.88;18.80;;;;;;;11.54;nan;101301.00;4938431;28;98112;-68
2021/01/05 09:24:24;;;;;;;28.63;18.52;;;;;;;11.52;nan;101300.91;4978626;28;97268;-68
2021/01/05 09:26:53;;;;;;;29.37;19.43;;;;;;;11.54;nan;101295.75;4979633;28;97494;-68
2021/01/05 09:29:22;;;;;;;37.20;23.25;;;;;;;11.53;nan;101297.47;4969887;28;97411;-68
2021/01/05 09:31:51;;;;;;;30.40;19.52;;;;;;;11.54;nan;101301.91;4975476;28;97758;-68
2021/01/05 09:34:22;;;;;;;29.77;18.75;;;;;;;11.54;nan;101307.19;4977937;28;98011;-68
2021/01/05 09:36:51;;;;;;;28.92;18.77;;;;;;;11.56;nan;101305.56;4952996;28;97710;-68
2021/01/05 09:39:22;;;;;;;30.45;19.98;;;;;;;11.55;nan;101311.59;4952221;28;99352;-68
2021/01/05 09:41:51;;;;;;;29.05;18.85;;;;;;;11.57;nan;101303.84;4979547;28;97616;-69
2021/01/05 09:44:18;;;;;;;32.22;19.80;;;;;;;11.59;nan;101308.34;4978026;28;97156;-68
2021/01/05 09:46:50;;;;;;;30.50;19.55;;;;;;;11.58;nan;101300.38;4959102;28;97521;-68
2021/01/05 09:49:18;;;;;;;32.70;19.63;;;;;;;11.58;nan;101314.44;4977487;28;98137;-68
2021/01/05 09:51:46;;;;;;;31.60;19.38;;;;;;;11.61;nan;101308.44;4961589;28;97905;-68
2021/01/05 09:54:15;;;;;;;33.22;21.27;;;;;;;11.59;nan;101303.09;4978476;28;97538;-69
2021/01/05 09:56:49;;;;;;;32.63;19.83;;;;;;;11.62;nan;101300.66;4979764;28;96959;-70
2021/01/05 09:59:20;;;;;;;35.20;20.33;;;;;;;11.64;nan;101303.38;4976188;28;97942;-68
2021/01/05 10:01:48;;;;;;;33.03;19.77;;;;;;;11.64;nan;101301.59;4953913;28;97839;-69
2021/01/05 10:04:15;;;;;;;99.00;48.78;;;;;;;11.64;nan;101303.38;4978635;28;97991;-68
2021/01/05 10:06:43;;;;;;;34.80;20.40;;;;;;;11.64;nan;101303.38;4980470;28;97510;-67
2021/01/05 10:09:12;;;;;;;33.05;20.05;;;;;;;11.65;nan;101306.09;4977897;28;98901;-67
2021/01/05 10:11:42;;;;;;;32.60;19.33;;;;;;;11.65;nan;101295.59;4978928;28;97652;-69
2021/01/05 10:14:12;;;;;;;33.10;19.67;;;;;;;11.66;nan;101285.97;4978672;28;97836;-69
2021/01/05 10:16:40;;;;;;;41.50;24.50;;;;;;;11.65;nan;101287.69;4980152;28;98078;-69
2021/01/05 10:19:10;;;;;;;44.83;27.53;;;;;;;11.70;nan;101293.19;4976138;28;98266;-69
2021/01/05 10:21:43;;;;;;;32.80;19.90;;;;;;;11.71;nan;101289.75;4978356;28;97808;-70
2021/01/05 10:24:13;;;;;;;34.03;19.95;;;;;;;11.69;nan;101280.88;4979107;28;97560;-70
2021/01/05 10:26:41;;;;;;;34.10;20.60;;;;;;;11.70;nan;101282.66;4972008;28;98092;-67
2021/01/05 10:29:12;;;;;;;36.63;19.83;;;;;;;11.67;nan;101280.78;4977568;28;101802;-70
2021/01/05 10:31:41;;;;;;;62.38;37.35;;;;;;;11.67;nan;101282.50;4978524;28;97824;-67
2021/01/05 10:34:10;;;;;;;43.72;26.30;;;;;;;11.66;nan;101281.59;4978865;28;97354;-69
2021/01/05 10:36:38;;;;;;;35.73;20.20;;;;;;;11.69;nan;101276.53;4976128;28;97524;-69
2021/01/05 10:39:07;;;;;;;81.23;42.07;;;;;;;11.72;nan;101271.41;4976812;28;97693;-68
2021/01/05 10:41:54;;;;;;;38.10;22.57;;;;;;;11.75;nan;101276.84;4948088;28;97912;-69
2021/01/05 10:44:23;;;;;;;36.42;19.98;;;;;;;11.79;nan;101277.91;4976451;28;97182;-69
2021/01/05 10:46:56;;;;;;;35.50;20.77;;;;;;;11.80;nan;101275.41;4978420;28;98147;-68
2021/01/05 10:49:23;;;;;;;33.13;19.15;;;;;;;11.79;nan;101273.56;4977844;28;97993;-68
2021/01/05 10:51:52;;;;;;;38.20;19.73;;;;;;;11.80;nan;101274.47;4961296;28;97137;-68
2021/01/05 10:54:21;;;;;;;38.08;20.35;;;;;;;11.79;nan;101270.94;4978693;28;97863;-70
2021/01/05 10:56:56;;;;;;;53.83;31.83;;;;;;;11.75;nan;101260.16;4974833;28;97967;-70
2021/01/05 10:59:24;;;;;;;52.72;30.70;;;;;;;11.77;nan;101267.31;4969983;28;99278;-71
2021/01/05 11:01:51;;;;;;;35.38;20.35;;;;;;;11.77;nan;101261.16;4958656;28;101265;-67
2021/01/05 11:04:19;;;;;;;36.27;19.27;;;;;;;11.80;nan;101264.88;4970437;28;98691;-68
2021/01/05 11:06:53;;;;;;;35.45;19.15;;;;;;;11.82;nan;101251.78;4975734;28;98213;-68
2021/01/05 11:09:21;;;;;;;43.43;20.40;;;;;;;11.80;nan;101254.34;4976096;28;98218;-69
2021/01/05 11:11:56;;;;;;;55.47;30.43;;;;;;;11.80;nan;101261.31;4954560;28;98677;-69
2021/01/05 11:14:24;;;;;;;68.35;35.47;;;;;;;11.82;nan;101252.69;4977295;28;97880;-69
2021/01/05 11:16:52;;;;;;;53.80;26.35;;;;;;;11.86;nan;101253.78;4979095;28;97807;-69
2021/01/05 11:19:20;;;;;;;46.70;21.75;;;;;;;11.84;nan;101248.41;4958229;28;99020;-69
2021/01/05 11:21:52;;;;;;;49.28;21.27;;;;;;;11.88;nan;101246.84;4977180;28;98332;-69
2021/01/05 11:24:20;;;;;;;42.38;21.13;;;;;;;11.85;nan;101242.34;4976870;28;96828;-69
2021/01/05 11:26:48;;;;;;;38.78;19.65;;;;;;;11.88;nan;101246.84;4976131;28;97376;-69
2021/01/05 11:29:16;;;;;;;43.65;19.98;;;;;;;11.86;nan;101232.72;4976983;28;97405;-69
2021/01/05 11:31:44;;;;;;;106.28;52.05;;;;;;;11.92;nan;101238.28;4941941;28;99618;-69
2021/01/05 11:34:12;;;;;;;170.35;88.15;;;;;;;11.89;nan;101238.13;4972975;28;97573;-69
2021/01/05 11:36:40;;;;;;;36.10;19.52;;;;;;;11.89;nan;101231.16;4958785;28;97090;-68
2021/01/05 11:39:07;;;;;;;43.53;22.48;;;;;;;11.87;nan;101234.50;4977357;28;99145;-69
2021/01/05 11:41:45;;;;;;;40.07;20.03;;;;;;;11.88;nan;101234.59;4958489;28;97653;-70
2021/01/05 11:44:13;;;;;;;35.13;18.67;;;;;;;11.89;nan;101230.25;4958870;28;98511;-70
2021/01/05 11:46:45;;;;;;;38.73;18.43;;;;;;;11.91;nan;101232.16;4977725;28;98391;-69
2021/01/05 11:49:13;;;;;;;38.70;17.90;;;;;;;11.92;nan;101227.75;4958178;28;98777;-70
2021/01/05 11:51:41;;;;;;;34.13;17.45;;;;;;;11.94;nan;101232.31;4972795;28;97874;-69
2021/01/05 11:54:08;;;;;;;36.27;17.47;;;;;;;11.95;nan;101222.69;4971008;28;98185;-69